Monday, November 20, 2017, 4:18 AM GMT
Back to Local

CWKG, Kejimkujik 1, N. S.

Location: , , Canada Lat: 44.433
Local Time: 4:18 AM GMT ( 4:18 GMT) Lon: -65.2
Time Zone: GMT Elev: 416 ft

Show me the last for .
Show Coded

Time T Td Feel RH Dir Speed Gust Alt SLP Vis Weather Sky Remarks
2017-11-20 03:00 41 37 31 85 300° 10 21 - 29.30 0 Peak wind: 25 mph (22 kts) from 280° at 02 min
2017-11-20 02:00 45 42 37 87 280° 13 23 - 29.26 0 Peak wind: 26 mph (23 kts) from 300° at 44 min
2017-11-20 01:00 49 46 42 87 250° 10 22 - 29.21 0 Peak wind: 27 mph (24 kts) from 260° at 18 min
2017-11-20 00:00 52 49 - 89 240° 12 21 - 29.18 0 Peak wind: 25 mph (22 kts) from 240° at 04 min
2017-11-19 23:00 54 52 - 91 230° 13 25 - 29.17 0 Peak wind: 28 mph (25 kts) from 230° at 19 min
2017-11-19 22:00 56 53 - 92 220° 12 24 - 29.17 0 Peak wind: 25 mph (22 kts) from 210° at 31 min
2017-11-19 21:00 56 54 - 91 220° 14 30 - 29.19 0 Peak wind: 32 mph (28 kts) from 230° at 43 min
1-hr Precip Total: 0.03"
2017-11-19 20:00 59 57 - 92 220° 10 20 - 29.19 0 Peak wind: 34 mph (30 kts) from 200° at 04 min
1-hr Precip Total: 0.20"
2017-11-19 19:00 60 58 - 90 210° 17 31 - 29.21 0 Peak wind: 31 mph (27 kts) from 230° at 53 min
1-hr Precip Total: 0.01"
2017-11-19 18:00 59 57 - 93 210° 14 29 - 29.25 0 Peak wind: 28 mph (25 kts) from 220° at 52 min
1-hr Precip Total: 0.02"
2017-11-19 17:00 59 57 - 93 210° 12 23 - 29.31 0 Peak wind: 27 mph (24 kts) from 220° at 45 min
1-hr Precip Total: 0.01"
2017-11-19 16:00 58 56 - 94 210° 10 21 - 29.35 0 Peak wind: 21 mph (19 kts) from 190° at 44 min
1-hr Precip Total: 0.01"
2017-11-19 15:00 57 55 - 94 200° 9 18 - 29.39 0 1-hr Precip Total: 0.01"
2017-11-19 14:00 55 53 - 95 190° 10 20 - 29.44 0 Peak wind: 19 mph (17 kts) from 180° at 52 min
1-hr Precip Total: 0.02"
2017-11-19 13:00 53 51 - 94 160° 8 - - 29.47 0 1-hr Precip Total: 0.05"
2017-11-19 12:00 51 50 - 95 170° 7 - - 29.51 0 1-hr Precip Total: 0.03"
2017-11-19 11:00 49 48 43 95 180° 8 18 - 29.54 0 1-hr Precip Total: 0.01"
2017-11-19 10:00 44 43 40 94 140° 8 - - 29.56 0 None
2017-11-19 09:00 40 39 35 94 130° 8 - - 29.60 0 1-hr Precip Total: 0.02"
2017-11-19 08:00 37 36 31 93 130° 8 - - 29.64 0 Pressure falling rapidly
2017-11-19 07:00 36 33 31 90 130° 6 - - 29.70 0 None
2017-11-19 06:00 34 32 29 90 120° 6 - - 29.72 0 None
2017-11-19 05:00 33 33 29 99 120° 5 - - 29.74 0 None

Support USWX by starting your Amazon purchase here.